sensor_id;sensor_type;location;lat;lon;timestamp;temperature;humidity
40758;DHT22;26462;47.384;19.218;2023-03-25T00:00:35;13.90;93.30
40758;DHT22;26462;47.384;19.218;2023-03-25T00:03:05;13.80;93.50
40758;DHT22;26462;47.384;19.218;2023-03-25T00:05:38;13.80;93.50
40758;DHT22;26462;47.384;19.218;2023-03-25T00:08:06;13.50;93.30
40758;DHT22;26462;47.384;19.218;2023-03-25T00:10:34;13.90;93.30
40758;DHT22;26462;47.384;19.218;2023-03-25T00:13:01;14.70;93.50
40758;DHT22;26462;47.384;19.218;2023-03-25T00:15:31;13.80;93.20
40758;DHT22;26462;47.384;19.218;2023-03-25T00:18:00;13.90;93.40
40758;DHT22;26462;47.384;19.218;2023-03-25T00:20:28;13.80;93.40
40758;DHT22;26462;47.384;19.218;2023-03-25T00:22:55;13.80;93.50
40758;DHT22;26462;47.384;19.218;2023-03-25T00:25:26;13.90;93.60
40758;DHT22;26462;47.384;19.218;2023-03-25T00:27:53;13.90;93.70
40758;DHT22;26462;47.384;19.218;2023-03-25T00:30:21;13.80;93.80
40758;DHT22;26462;47.384;19.218;2023-03-25T00:32:48;13.80;93.80
40758;DHT22;26462;47.384;19.218;2023-03-25T00:35:20;13.10;93.50
40758;DHT22;26462;47.384;19.218;2023-03-25T00:37:50;13.90;93.80
40758;DHT22;26462;47.384;19.218;2023-03-25T00:40:28;13.80;93.70
40758;DHT22;26462;47.384;19.218;2023-03-25T00:42:56;13.90;93.80
40758;DHT22;26462;47.384;19.218;2023-03-25T00:45:23;13.80;94.00
40758;DHT22;26462;47.384;19.218;2023-03-25T00:47:51;13.80;94.10
40758;DHT22;26462;47.384;19.218;2023-03-25T00:50:19;13.80;94.00
40758;DHT22;26462;47.384;19.218;2023-03-25T00:52:48;13.40;94.00
40758;DHT22;26462;47.384;19.218;2023-03-25T00:55:16;13.90;94.10
40758;DHT22;26462;47.384;19.218;2023-03-25T00:57:44;13.80;94.40
40758;DHT22;26462;47.384;19.218;2023-03-25T01:00:15;13.80;94.70
40758;DHT22;26462;47.384;19.218;2023-03-25T01:02:43;13.40;94.50
40758;DHT22;26462;47.384;19.218;2023-03-25T01:05:12;13.80;94.50
40758;DHT22;26462;47.384;19.218;2023-03-25T01:07:39;14.20;93.80
40758;DHT22;26462;47.384;19.218;2023-03-25T01:10:10;13.90;93.10
40758;DHT22;26462;47.384;19.218;2023-03-25T01:12:37;13.90;92.90
40758;DHT22;26462;47.384;19.218;2023-03-25T01:15:05;14.00;92.40
40758;DHT22;26462;47.384;19.218;2023-03-25T01:17:33;14.10;91.50
40758;DHT22;26462;47.384;19.218;2023-03-25T01:20:01;14.20;91.10
40758;DHT22;26462;47.384;19.218;2023-03-25T01:22:32;14.50;90.90
40758;DHT22;26462;47.384;19.218;2023-03-25T01:24:59;14.50;90.60
40758;DHT22;26462;47.384;19.218;2023-03-25T01:27:28;14.80;90.90
40758;DHT22;26462;47.384;19.218;2023-03-25T01:29:56;14.80;90.90
40758;DHT22;26462;47.384;19.218;2023-03-25T01:32:24;15.10;90.80
40758;DHT22;26462;47.384;19.218;2023-03-25T01:34:52;15.00;90.90
40758;DHT22;26462;47.384;19.218;2023-03-25T01:37:42;15.30;91.00
40758;DHT22;26462;47.384;19.218;2023-03-25T01:40:18;15.10;91.20
40758;DHT22;26462;47.384;19.218;2023-03-25T01:42:45;15.10;91.50
40758;DHT22;26462;47.384;19.218;2023-03-25T01:45:20;15.10;91.80
40758;DHT22;26462;47.384;19.218;2023-03-25T01:48:00;15.00;92.10
40758;DHT22;26462;47.384;19.218;2023-03-25T01:50:29;14.90;92.40
40758;DHT22;26462;47.384;19.218;2023-03-25T01:53:00;14.90;92.80
40758;DHT22;26462;47.384;19.218;2023-03-25T01:55:30;14.90;93.20
40758;DHT22;26462;47.384;19.218;2023-03-25T01:58:04;14.80;93.50
40758;DHT22;26462;47.384;19.218;2023-03-25T02:00:38;14.70;93.70
40758;DHT22;26462;47.384;19.218;2023-03-25T02:03:08;14.20;93.60
40758;DHT22;26462;47.384;19.218;2023-03-25T02:05:45;14.80;94.10
40758;DHT22;26462;47.384;19.218;2023-03-25T02:08:18;14.70;94.70
40758;DHT22;26462;47.384;19.218;2023-03-25T02:10:48;14.80;95.50
40758;DHT22;26462;47.384;19.218;2023-03-25T02:13:16;14.60;96.40
40758;DHT22;26462;47.384;19.218;2023-03-25T02:18:47;14.50;97.10
40758;DHT22;26462;47.384;19.218;2023-03-25T02:33:43;14.30;99.40
40758;DHT22;26462;47.384;19.218;2023-03-25T02:39:15;14.10;99.90
40758;DHT22;26462;47.384;19.218;2023-03-25T02:45:01;13.70;99.90
40758;DHT22;26462;47.384;19.218;2023-03-25T02:47:32;13.90;99.90
40758;DHT22;26462;47.384;19.218;2023-03-25T02:50:14;13.80;99.90
40758;DHT22;26462;47.384;19.218;2023-03-25T02:52:48;13.90;99.90
40758;DHT22;26462;47.384;19.218;2023-03-25T02:55:21;13.80;99.90
40758;DHT22;26462;47.384;19.218;2023-03-25T02:57:50;13.50;99.90
40758;DHT22;26462;47.384;19.218;2023-03-25T03:00:25;13.70;99.90
40758;DHT22;26462;47.384;19.218;2023-03-25T03:03:02;13.60;99.90
40758;DHT22;26462;47.384;19.218;2023-03-25T03:05:40;13.50;99.90
40758;DHT22;26462;47.384;19.218;2023-03-25T03:16:42;13.50;99.90
40758;DHT22;26462;47.384;19.218;2023-03-25T03:19:37;13.50;99.90
40758;DHT22;26462;47.384;19.218;2023-03-25T03:22:22;13.50;99.90
40758;DHT22;26462;47.384;19.218;2023-03-25T03:25:29;13.60;99.90
40758;DHT22;26462;47.384;19.218;2023-03-25T03:30:49;13.50;99.90
40758;DHT22;26462;47.384;19.218;2023-03-25T03:33:31;13.40;99.90
40758;DHT22;26462;47.384;19.218;2023-03-25T03:36:05;13.40;99.90
40758;DHT22;26462;47.384;19.218;2023-03-25T03:38:44;13.40;99.90
40758;DHT22;26462;47.384;19.218;2023-03-25T03:41:17;13.40;99.90
40758;DHT22;26462;47.384;19.218;2023-03-25T03:44:02;13.40;99.90
40758;DHT22;26462;47.384;19.218;2023-03-25T03:46:42;13.90;99.90
40758;DHT22;26462;47.384;19.218;2023-03-25T03:49:15;13.30;99.90
40758;DHT22;26462;47.384;19.218;2023-03-25T03:52:05;13.30;99.90
40758;DHT22;26462;47.384;19.218;2023-03-25T03:54:41;13.10;99.90
40758;DHT22;26462;47.384;19.218;2023-03-25T03:57:35;13.30;99.90
40758;DHT22;26462;47.384;19.218;2023-03-25T04:00:06;13.10;99.90
40758;DHT22;26462;47.384;19.218;2023-03-25T04:05:10;12.70;99.90
40758;DHT22;26462;47.384;19.218;2023-03-25T04:08:03;13.10;99.90
40758;DHT22;26462;47.384;19.218;2023-03-25T04:11:01;12.80;99.90
40758;DHT22;26462;47.384;19.218;2023-03-25T04:13:34;12.70;99.90
40758;DHT22;26462;47.384;19.218;2023-03-25T04:16:05;12.50;99.90
40758;DHT22;26462;47.384;19.218;2023-03-25T04:18:33;12.40;99.90
40758;DHT22;26462;47.384;19.218;2023-03-25T04:21:00;12.40;99.90
40758;DHT22;26462;47.384;19.218;2023-03-25T04:23:31;12.70;99.90
40758;DHT22;26462;47.384;19.218;2023-03-25T04:26:00;12.50;99.90
40758;DHT22;26462;47.384;19.218;2023-03-25T04:28:29;12.40;99.90
40758;DHT22;26462;47.384;19.218;2023-03-25T04:30:57;12.30;99.90
40758;DHT22;26462;47.384;19.218;2023-03-25T04:33:26;12.40;99.90
40758;DHT22;26462;47.384;19.218;2023-03-25T04:35:58;12.40;99.90
40758;DHT22;26462;47.384;19.218;2023-03-25T04:38:28;12.30;99.90
40758;DHT22;26462;47.384;19.218;2023-03-25T04:40:55;12.20;99.90
40758;DHT22;26462;47.384;19.218;2023-03-25T04:43:24;12.20;99.90
40758;DHT22;26462;47.384;19.218;2023-03-25T04:45:52;12.20;99.90
40758;DHT22;26462;47.384;19.218;2023-03-25T04:48:27;12.30;99.90
40758;DHT22;26462;47.384;19.218;2023-03-25T04:50:58;12.40;99.90
40758;DHT22;26462;47.384;19.218;2023-03-25T04:53:27;12.40;99.90
40758;DHT22;26462;47.384;19.218;2023-03-25T04:55:55;12.50;99.90
40758;DHT22;26462;47.384;19.218;2023-03-25T04:58:22;12.40;99.90
40758;DHT22;26462;47.384;19.218;2023-03-25T05:00:51;12.40;99.90
40758;DHT22;26462;47.384;19.218;2023-03-25T05:03:27;12.50;99.90
40758;DHT22;26462;47.384;19.218;2023-03-25T05:06:04;12.40;99.90
40758;DHT22;26462;47.384;19.218;2023-03-25T05:08:46;12.90;99.90
40758;DHT22;26462;47.384;19.218;2023-03-25T05:11:44;12.50;99.90
40758;DHT22;26462;47.384;19.218;2023-03-25T05:14:14;12.40;99.90
40758;DHT22;26462;47.384;19.218;2023-03-25T05:16:47;12.30;99.90
40758;DHT22;26462;47.384;19.218;2023-03-25T05:19:16;12.40;99.90
40758;DHT22;26462;47.384;19.218;2023-03-25T05:21:47;12.40;99.90
40758;DHT22;26462;47.384;19.218;2023-03-25T05:24:17;12.40;99.90
40758;DHT22;26462;47.384;19.218;2023-03-25T05:26:52;12.40;99.90
40758;DHT22;26462;47.384;19.218;2023-03-25T05:29:23;12.40;99.90
40758;DHT22;26462;47.384;19.218;2023-03-25T05:31:50;12.40;99.90
40758;DHT22;26462;47.384;19.218;2023-03-25T05:34:31;12.20;99.90
40758;DHT22;26462;47.384;19.218;2023-03-25T05:36:59;12.30;99.90
40758;DHT22;26462;47.384;19.218;2023-03-25T05:39:51;12.40;99.90
40758;DHT22;26462;47.384;19.218;2023-03-25T05:42:52;12.40;99.90
40758;DHT22;26462;47.384;19.218;2023-03-25T05:45:56;12.30;99.90
40758;DHT22;26462;47.384;19.218;2023-03-25T05:48:26;11.30;99.90
40758;DHT22;26462;47.384;19.218;2023-03-25T05:51:05;12.40;99.90
40758;DHT22;26462;47.384;19.218;2023-03-25T05:53:42;13.40;99.90
40758;DHT22;26462;47.384;19.218;2023-03-25T05:56:25;12.40;99.90
40758;DHT22;26462;47.384;19.218;2023-03-25T05:59:01;12.40;99.90
40758;DHT22;26462;47.384;19.218;2023-03-25T06:01:36;12.30;99.90
40758;DHT22;26462;47.384;19.218;2023-03-25T06:04:14;12.40;99.90
40758;DHT22;26462;47.384;19.218;2023-03-25T06:06:45;12.50;99.90
40758;DHT22;26462;47.384;19.218;2023-03-25T06:09:19;12.30;99.90
40758;DHT22;26462;47.384;19.218;2023-03-25T06:11:54;12.40;99.90
40758;DHT22;26462;47.384;19.218;2023-03-25T06:14:21;12.40;99.90
40758;DHT22;26462;47.384;19.218;2023-03-25T06:16:54;12.40;99.90
40758;DHT22;26462;47.384;19.218;2023-03-25T06:19:33;12.40;99.90
40758;DHT22;26462;47.384;19.218;2023-03-25T06:51:27;12.40;99.90
40758;DHT22;26462;47.384;19.218;2023-03-25T06:54:03;12.50;99.90
40758;DHT22;26462;47.384;19.218;2023-03-25T06:56:32;12.30;99.90
40758;DHT22;26462;47.384;19.218;2023-03-25T06:59:00;12.30;99.90
40758;DHT22;26462;47.384;19.218;2023-03-25T07:01:27;12.20;99.90
40758;DHT22;26462;47.384;19.218;2023-03-25T07:03:55;12.50;99.90
40758;DHT22;26462;47.384;19.218;2023-03-25T07:06:33;12.40;99.90
40758;DHT22;26462;47.384;19.218;2023-03-25T07:09:00;12.40;99.90
40758;DHT22;26462;47.384;19.218;2023-03-25T07:11:28;12.60;99.90
40758;DHT22;26462;47.384;19.218;2023-03-25T07:13:57;12.60;99.90
40758;DHT22;26462;47.384;19.218;2023-03-25T07:16:27;12.60;99.90
40758;DHT22;26462;47.384;19.218;2023-03-25T07:19:19;12.70;99.90
40758;DHT22;26462;47.384;19.218;2023-03-25T07:21:46;12.60;99.90
40758;DHT22;26462;47.384;19.218;2023-03-25T07:24:13;12.70;99.90
40758;DHT22;26462;47.384;19.218;2023-03-25T07:26:41;12.80;99.90
40758;DHT22;26462;47.384;19.218;2023-03-25T07:29:10;12.80;99.90
40758;DHT22;26462;47.384;19.218;2023-03-25T07:31:39;12.90;99.90
40758;DHT22;26462;47.384;19.218;2023-03-25T07:34:07;13.00;99.90
40758;DHT22;26462;47.384;19.218;2023-03-25T07:36:35;13.00;99.90
40758;DHT22;26462;47.384;19.218;2023-03-25T07:39:05;13.10;99.90
40758;DHT22;26462;47.384;19.218;2023-03-25T07:41:34;13.10;99.90
40758;DHT22;26462;47.384;19.218;2023-03-25T07:44:27;13.20;99.90
40758;DHT22;26462;47.384;19.218;2023-03-25T07:46:54;13.20;99.90
40758;DHT22;26462;47.384;19.218;2023-03-25T07:49:23;13.20;99.90
40758;DHT22;26462;47.384;19.218;2023-03-25T07:51:50;13.40;99.90
40758;DHT22;26462;47.384;19.218;2023-03-25T07:54:18;13.10;99.90
40758;DHT22;26462;47.384;19.218;2023-03-25T07:56:48;13.20;99.90
40758;DHT22;26462;47.384;19.218;2023-03-25T07:59:15;13.20;99.90
40758;DHT22;26462;47.384;19.218;2023-03-25T08:01:43;13.10;99.90
40758;DHT22;26462;47.384;19.218;2023-03-25T08:04:10;13.10;99.90
40758;DHT22;26462;47.384;19.218;2023-03-25T08:06:40;13.20;99.90
40758;DHT22;26462;47.384;19.218;2023-03-25T08:09:07;13.20;99.90
40758;DHT22;26462;47.384;19.218;2023-03-25T08:11:35;13.50;99.90
40758;DHT22;26462;47.384;19.218;2023-03-25T08:14:02;14.30;99.90
40758;DHT22;26462;47.384;19.218;2023-03-25T08:16:30;13.90;99.90
40758;DHT22;26462;47.384;19.218;2023-03-25T08:18:58;13.90;99.90
40758;DHT22;26462;47.384;19.218;2023-03-25T08:21:26;14.20;99.90
40758;DHT22;26462;47.384;19.218;2023-03-25T08:23:54;14.40;99.90
40758;DHT22;26462;47.384;19.218;2023-03-25T08:26:24;14.70;99.90
40758;DHT22;26462;47.384;19.218;2023-03-25T08:28:53;14.80;99.90
40758;DHT22;26462;47.384;19.218;2023-03-25T08:31:24;15.00;99.90
40758;DHT22;26462;47.384;19.218;2023-03-25T08:33:52;14.90;98.50
40758;DHT22;26462;47.384;19.218;2023-03-25T08:36:19;15.00;97.10
40758;DHT22;26462;47.384;19.218;2023-03-25T08:38:49;15.20;97.90
40758;DHT22;26462;47.384;19.218;2023-03-25T08:41:17;15.50;97.20
40758;DHT22;26462;47.384;19.218;2023-03-25T08:43:44;15.30;95.80
40758;DHT22;26462;47.384;19.218;2023-03-25T08:46:12;14.90;93.70
40758;DHT22;26462;47.384;19.218;2023-03-25T08:48:40;15.30;93.30
40758;DHT22;26462;47.384;19.218;2023-03-25T08:51:07;15.20;92.50
40758;DHT22;26462;47.384;19.218;2023-03-25T08:53:34;15.40;91.80
40758;DHT22;26462;47.384;19.218;2023-03-25T08:56:02;15.60;90.00
40758;DHT22;26462;47.384;19.218;2023-03-25T08:58:29;15.60;89.00
40758;DHT22;26462;47.384;19.218;2023-03-25T09:00:56;15.60;89.00
40758;DHT22;26462;47.384;19.218;2023-03-25T09:03:24;15.70;88.10
40758;DHT22;26462;47.384;19.218;2023-03-25T09:05:54;15.80;87.50
40758;DHT22;26462;47.384;19.218;2023-03-25T09:08:22;15.90;85.60
40758;DHT22;26462;47.384;19.218;2023-03-25T09:10:49;15.70;83.60
40758;DHT22;26462;47.384;19.218;2023-03-25T09:13:16;15.80;84.90
40758;DHT22;26462;47.384;19.218;2023-03-25T09:15:44;16.00;83.60
40758;DHT22;26462;47.384;19.218;2023-03-25T09:18:12;16.10;83.80
40758;DHT22;26462;47.384;19.218;2023-03-25T09:20:39;16.30;83.20
40758;DHT22;26462;47.384;19.218;2023-03-25T09:23:07;16.60;84.30
40758;DHT22;26462;47.384;19.218;2023-03-25T09:25:37;16.50;81.10
40758;DHT22;26462;47.384;19.218;2023-03-25T09:28:04;16.40;79.40
40758;DHT22;26462;47.384;19.218;2023-03-25T09:30:32;16.30;80.10
40758;DHT22;26462;47.384;19.218;2023-03-25T09:32:59;16.50;79.00
40758;DHT22;26462;47.384;19.218;2023-03-25T09:35:27;16.20;78.90
40758;DHT22;26462;47.384;19.218;2023-03-25T09:37:55;16.60;79.40
40758;DHT22;26462;47.384;19.218;2023-03-25T09:40:22;16.30;78.90
40758;DHT22;26462;47.384;19.218;2023-03-25T09:45:54;16.90;78.90
40758;DHT22;26462;47.384;19.218;2023-03-25T09:50:49;16.50;79.00
40758;DHT22;26462;47.384;19.218;2023-03-25T09:53:37;16.80;79.10
40758;DHT22;26462;47.384;19.218;2023-03-25T09:56:13;16.70;79.30
40758;DHT22;26462;47.384;19.218;2023-03-25T09:58:45;16.50;77.50
40758;DHT22;26462;47.384;19.218;2023-03-25T10:06:57;17.40;75.60
40758;DHT22;26462;47.384;19.218;2023-03-25T10:09:49;17.30;74.00
40758;DHT22;26462;47.384;19.218;2023-03-25T10:15:07;17.70;74.70
40758;DHT22;26462;47.384;19.218;2023-03-25T10:17:51;17.90;73.90
40758;DHT22;26462;47.384;19.218;2023-03-25T10:20:48;17.80;73.10
40758;DHT22;26462;47.384;19.218;2023-03-25T10:23:29;18.30;74.00
40758;DHT22;26462;47.384;19.218;2023-03-25T10:26:03;17.60;69.50
40758;DHT22;26462;47.384;19.218;2023-03-25T10:28:38;18.00;69.50
40758;DHT22;26462;47.384;19.218;2023-03-25T10:31:15;17.90;70.10
40758;DHT22;26462;47.384;19.218;2023-03-25T10:34:06;17.70;71.10
40758;DHT22;26462;47.384;19.218;2023-03-25T10:36:42;17.20;70.70
40758;DHT22;26462;47.384;19.218;2023-03-25T10:39:18;16.90;72.60
40758;DHT22;26462;47.384;19.218;2023-03-25T10:42:23;15.90;72.90
40758;DHT22;26462;47.384;19.218;2023-03-25T10:44:52;16.40;75.30
40758;DHT22;26462;47.384;19.218;2023-03-25T10:47:25;16.30;77.50
40758;DHT22;26462;47.384;19.218;2023-03-25T10:49:55;16.10;76.30
40758;DHT22;26462;47.384;19.218;2023-03-25T10:52:25;16.40;76.80
40758;DHT22;26462;47.384;19.218;2023-03-25T10:54:54;16.30;77.50
40758;DHT22;26462;47.384;19.218;2023-03-25T10:57:28;16.70;77.70
40758;DHT22;26462;47.384;19.218;2023-03-25T11:00:15;16.80;77.20
40758;DHT22;26462;47.384;19.218;2023-03-25T11:02:46;17.30;76.70
40758;DHT22;26462;47.384;19.218;2023-03-25T11:05:17;16.90;74.90
40758;DHT22;26462;47.384;19.218;2023-03-25T11:08:01;16.80;76.50
40758;DHT22;26462;47.384;19.218;2023-03-25T11:10:50;16.50;76.40
40758;DHT22;26462;47.384;19.218;2023-03-25T11:13:28;16.40;75.40
40758;DHT22;26462;47.384;19.218;2023-03-25T11:16:02;16.20;75.50
40758;DHT22;26462;47.384;19.218;2023-03-25T11:18:34;16.20;74.00
40758;DHT22;26462;47.384;19.218;2023-03-25T11:21:13;16.30;73.40
40758;DHT22;26462;47.384;19.218;2023-03-25T11:23:44;16.60;73.60
40758;DHT22;26462;47.384;19.218;2023-03-25T11:26:21;16.50;73.00
40758;DHT22;26462;47.384;19.218;2023-03-25T11:28:54;16.50;71.80
40758;DHT22;26462;47.384;19.218;2023-03-25T11:31:25;16.40;71.60
40758;DHT22;26462;47.384;19.218;2023-03-25T11:34:14;16.50;72.30
40758;DHT22;26462;47.384;19.218;2023-03-25T11:42:19;16.50;70.00
40758;DHT22;26462;47.384;19.218;2023-03-25T11:44:51;16.30;70.80
40758;DHT22;26462;47.384;19.218;2023-03-25T11:47:28;16.30;70.90
40758;DHT22;26462;47.384;19.218;2023-03-25T11:49:57;16.20;70.90
40758;DHT22;26462;47.384;19.218;2023-03-25T11:52:34;16.20;71.10
40758;DHT22;26462;47.384;19.218;2023-03-25T11:55:06;16.30;70.90
40758;DHT22;26462;47.384;19.218;2023-03-25T11:57:39;16.40;70.30
40758;DHT22;26462;47.384;19.218;2023-03-25T12:00:35;16.50;70.20
40758;DHT22;26462;47.384;19.218;2023-03-25T12:06:03;16.60;69.80
40758;DHT22;26462;47.384;19.218;2023-03-25T12:08:57;16.60;69.70
40758;DHT22;26462;47.384;19.218;2023-03-25T12:11:30;16.60;69.90
40758;DHT22;26462;47.384;19.218;2023-03-25T12:16:50;16.10;69.10
40758;DHT22;26462;47.384;19.218;2023-03-25T12:28:19;16.00;67.80
40758;DHT22;26462;47.384;19.218;2023-03-25T12:39:45;16.10;70.80
40758;DHT22;26462;47.384;19.218;2023-03-25T12:48:47;15.70;66.90
40758;DHT22;26462;47.384;19.218;2023-03-25T13:07:46;15.90;65.40
40758;DHT22;26462;47.384;19.218;2023-03-25T13:10:22;16.00;65.60
40758;DHT22;26462;47.384;19.218;2023-03-25T13:12:53;16.00;66.20
40758;DHT22;26462;47.384;19.218;2023-03-25T13:15:28;16.00;65.60
40758;DHT22;26462;47.384;19.218;2023-03-25T13:18:05;16.00;66.50
40758;DHT22;26462;47.384;19.218;2023-03-25T13:20:40;16.20;67.10
40758;DHT22;26462;47.384;19.218;2023-03-25T13:23:14;16.20;67.10
40758;DHT22;26462;47.384;19.218;2023-03-25T13:25:54;15.90;65.40
40758;DHT22;26462;47.384;19.218;2023-03-25T13:28:35;15.90;65.60
40758;DHT22;26462;47.384;19.218;2023-03-25T13:31:14;15.90;65.80
40758;DHT22;26462;47.384;19.218;2023-03-25T13:34:00;16.00;66.50
40758;DHT22;26462;47.384;19.218;2023-03-25T13:36:35;15.90;66.30
40758;DHT22;26462;47.384;19.218;2023-03-25T13:39:26;16.00;66.90
40758;DHT22;26462;47.384;19.218;2023-03-25T13:42:04;16.10;67.30
40758;DHT22;26462;47.384;19.218;2023-03-25T13:44:39;16.10;67.50
40758;DHT22;26462;47.384;19.218;2023-03-25T13:47:18;16.00;67.70
40758;DHT22;26462;47.384;19.218;2023-03-25T13:49:59;16.10;66.90
40758;DHT22;26462;47.384;19.218;2023-03-25T13:52:32;16.10;65.50
40758;DHT22;26462;47.384;19.218;2023-03-25T13:55:02;15.50;64.50
40758;DHT22;26462;47.384;19.218;2023-03-25T14:16:24;15.70;63.60
40758;DHT22;26462;47.384;19.218;2023-03-25T14:18:59;15.60;63.20
40758;DHT22;26462;47.384;19.218;2023-03-25T14:21:40;15.50;63.40
40758;DHT22;26462;47.384;19.218;2023-03-25T14:24:30;15.40;64.20
40758;DHT22;26462;47.384;19.218;2023-03-25T14:27:02;15.40;64.40
40758;DHT22;26462;47.384;19.218;2023-03-25T14:34:45;15.50;65.50
40758;DHT22;26462;47.384;19.218;2023-03-25T14:37:24;15.10;65.30
40758;DHT22;26462;47.384;19.218;2023-03-25T14:40:04;15.20;65.30
40758;DHT22;26462;47.384;19.218;2023-03-25T14:42:58;15.20;65.90
40758;DHT22;26462;47.384;19.218;2023-03-25T14:47:58;15.20;66.50
40758;DHT22;26462;47.384;19.218;2023-03-25T14:53:08;15.10;66.30
40758;DHT22;26462;47.384;19.218;2023-03-25T14:55:43;15.00;66.00
40758;DHT22;26462;47.384;19.218;2023-03-25T14:58:25;15.10;67.40
40758;DHT22;26462;47.384;19.218;2023-03-25T15:01:10;15.10;66.50
40758;DHT22;26462;47.384;19.218;2023-03-25T15:03:41;14.70;66.90
40758;DHT22;26462;47.384;19.218;2023-03-25T15:06:27;15.10;65.60
40758;DHT22;26462;47.384;19.218;2023-03-25T15:08:57;15.00;64.30
40758;DHT22;26462;47.384;19.218;2023-03-25T15:11:33;14.90;64.40
40758;DHT22;26462;47.384;19.218;2023-03-25T15:14:11;15.10;65.50
40758;DHT22;26462;47.384;19.218;2023-03-25T15:19:16;15.00;63.50
40758;DHT22;26462;47.384;19.218;2023-03-25T15:24:46;14.90;61.70
40758;DHT22;26462;47.384;19.218;2023-03-25T15:55:34;15.00;62.70
40758;DHT22;26462;47.384;19.218;2023-03-25T15:58:19;15.00;63.20
40758;DHT22;26462;47.384;19.218;2023-03-25T16:00:52;14.90;62.90
40758;DHT22;26462;47.384;19.218;2023-03-25T16:03:24;14.80;63.20
40758;DHT22;26462;47.384;19.218;2023-03-25T16:05:58;14.70;62.90
40758;DHT22;26462;47.384;19.218;2023-03-25T16:08:33;14.60;63.40
40758;DHT22;26462;47.384;19.218;2023-03-25T16:13:45;14.50;63.70
40758;DHT22;26462;47.384;19.218;2023-03-25T16:16:14;14.50;63.50
40758;DHT22;26462;47.384;19.218;2023-03-25T16:18:45;14.50;63.50
40758;DHT22;26462;47.384;19.218;2023-03-25T16:21:14;14.40;63.80
40758;DHT22;26462;47.384;19.218;2023-03-25T16:23:41;14.50;63.70
40758;DHT22;26462;47.384;19.218;2023-03-25T16:26:12;14.50;64.20
40758;DHT22;26462;47.384;19.218;2023-03-25T16:28:44;14.40;64.20
40758;DHT22;26462;47.384;19.218;2023-03-25T16:31:30;14.40;63.60
40758;DHT22;26462;47.384;19.218;2023-03-25T16:34:01;14.30;64.50
40758;DHT22;26462;47.384;19.218;2023-03-25T16:36:28;14.30;64.50
40758;DHT22;26462;47.384;19.218;2023-03-25T16:38:56;14.20;64.20
40758;DHT22;26462;47.384;19.218;2023-03-25T16:41:24;14.10;64.40
40758;DHT22;26462;47.384;19.218;2023-03-25T16:43:52;14.10;64.10
40758;DHT22;26462;47.384;19.218;2023-03-25T16:46:21;14.10;64.40
40758;DHT22;26462;47.384;19.218;2023-03-25T16:48:51;14.00;64.70
40758;DHT22;26462;47.384;19.218;2023-03-25T16:51:26;14.00;64.30
40758;DHT22;26462;47.384;19.218;2023-03-25T16:54:08;13.80;64.00
40758;DHT22;26462;47.384;19.218;2023-03-25T16:56:37;13.80;64.70
40758;DHT22;26462;47.384;19.218;2023-03-25T16:59:06;13.00;64.30
40758;DHT22;26462;47.384;19.218;2023-03-25T17:01:39;13.60;64.50
40758;DHT22;26462;47.384;19.218;2023-03-25T17:04:17;14.80;65.10
40758;DHT22;26462;47.384;19.218;2023-03-25T17:06:50;13.50;64.60
40758;DHT22;26462;47.384;19.218;2023-03-25T17:09:23;13.50;65.20
40758;DHT22;26462;47.384;19.218;2023-03-25T17:11:55;13.40;65.10
40758;DHT22;26462;47.384;19.218;2023-03-25T17:14:31;13.40;65.10
40758;DHT22;26462;47.384;19.218;2023-03-25T17:17:52;13.20;65.30
40758;DHT22;26462;47.384;19.218;2023-03-25T17:19:54;12.50;64.80
40758;DHT22;26462;47.384;19.218;2023-03-25T17:22:34;13.20;65.80
40758;DHT22;26462;47.384;19.218;2023-03-25T17:25:35;13.10;65.80
40758;DHT22;26462;47.384;19.218;2023-03-25T17:28:26;13.10;66.30
40758;DHT22;26462;47.384;19.218;2023-03-25T17:30:56;13.10;66.80
40758;DHT22;26462;47.384;19.218;2023-03-25T17:35:56;13.10;67.80
40758;DHT22;26462;47.384;19.218;2023-03-25T17:38:31;13.10;67.80
40758;DHT22;26462;47.384;19.218;2023-03-25T17:41:07;12.90;68.00
40758;DHT22;26462;47.384;19.218;2023-03-25T17:43:43;12.70;68.90
40758;DHT22;26462;47.384;19.218;2023-03-25T17:46:18;12.90;69.00
40758;DHT22;26462;47.384;19.218;2023-03-25T17:48:48;12.70;70.20
40758;DHT22;26462;47.384;19.218;2023-03-25T17:51:20;12.70;70.80
40758;DHT22;26462;47.384;19.218;2023-03-25T17:53:48;12.80;71.30
40758;DHT22;26462;47.384;19.218;2023-03-25T17:56:23;12.00;71.10
40758;DHT22;26462;47.384;19.218;2023-03-25T17:59:04;12.60;71.80
40758;DHT22;26462;47.384;19.218;2023-03-25T18:01:33;12.50;71.60
40758;DHT22;26462;47.384;19.218;2023-03-25T18:04:02;12.50;71.90
40758;DHT22;26462;47.384;19.218;2023-03-25T18:06:31;12.30;72.50
40758;DHT22;26462;47.384;19.218;2023-03-25T18:09:01;12.40;73.30
40758;DHT22;26462;47.384;19.218;2023-03-25T18:11:29;12.30;73.80
40758;DHT22;26462;47.384;19.218;2023-03-25T18:13:58;12.20;74.30
40758;DHT22;26462;47.384;19.218;2023-03-25T18:16:26;12.20;74.20
40758;DHT22;26462;47.384;19.218;2023-03-25T18:18:54;12.10;74.60
40758;DHT22;26462;47.384;19.218;2023-03-25T18:21:23;11.30;74.20
40758;DHT22;26462;47.384;19.218;2023-03-25T18:23:51;12.00;74.10
40758;DHT22;26462;47.384;19.218;2023-03-25T18:26:19;12.00;73.70
40758;DHT22;26462;47.384;19.218;2023-03-25T18:28:48;11.30;73.80
40758;DHT22;26462;47.384;19.218;2023-03-25T18:31:16;11.40;74.00
40758;DHT22;26462;47.384;19.218;2023-03-25T18:33:46;11.90;75.50
40758;DHT22;26462;47.384;19.218;2023-03-25T18:36:20;11.90;77.00
40758;DHT22;26462;47.384;19.218;2023-03-25T18:38:52;12.00;79.00
40758;DHT22;26462;47.384;19.218;2023-03-25T18:41:21;12.10;81.60
40758;DHT22;26462;47.384;19.218;2023-03-25T18:43:50;11.80;83.50
40758;DHT22;26462;47.384;19.218;2023-03-25T18:46:18;11.80;86.30
40758;DHT22;26462;47.384;19.218;2023-03-25T18:48:46;10.60;87.00
40758;DHT22;26462;47.384;19.218;2023-03-25T18:51:15;11.70;89.10
40758;DHT22;26462;47.384;19.218;2023-03-25T18:53:43;11.70;90.10
40758;DHT22;26462;47.384;19.218;2023-03-25T18:56:14;11.70;90.40
40758;DHT22;26462;47.384;19.218;2023-03-25T18:58:43;11.70;90.90
40758;DHT22;26462;47.384;19.218;2023-03-25T19:01:13;11.60;91.60
40758;DHT22;26462;47.384;19.218;2023-03-25T19:03:48;11.60;92.20
40758;DHT22;26462;47.384;19.218;2023-03-25T19:06:18;11.50;92.90
40758;DHT22;26462;47.384;19.218;2023-03-25T19:08:46;11.60;93.50
40758;DHT22;26462;47.384;19.218;2023-03-25T19:11:15;11.50;94.30